Date,TemperatureHighF,TemperatureAvgF,TemperatureLowF,DewpointHighF,DewpointAvgF,DewpointLowF,HumidityHigh,HumidityAvg,HumidityLow,PressureMaxIn,PressureMinIn,WindSpeedMaxMPH,WindSpeedAvgMPH,GustSpeedMaxMPH,PrecipitationSumIn
2013-2-1,67,43,29,32,18,-100,81,48,22,30.25,30.10,3,-80,7,0.00
2013-2-2,66,53,40,44,31,26,69,47,22,30.25,30.10,2,0,7,0.01
2013-2-3,68,45,40,45,14,-100,89,47,17,30.10,29.95,8,-170,13,0.00
2013-2-4,70,41,41,29,-7,-100,49,24,19,30.06,29.95,3,0,11,0.00
2013-2-5,75,47,31,43,18,-100,85,42,14,30.04,29.81,14,2,22,0.00
2013-2-6,65,41,36,42,10,-100,83,45,20,30.02,29.85,10,-145,25,0.00
2013-2-7,67,36,25,35,5,-100,65,43,20,30.12,29.82,12,-138,18,0.00
2013-2-8,51,40,35,34,28,23,82,64,39,29.86,29.75,10,5,19,0.00
2013-2-9,49,34,31,28,5,-100,72,46,27,30.02,29.81,15,-136,25,0.00
2013-2-10,54,31,21,28,1,-100,73,45,22,30.08,29.93,9,-151,17,0.00
2013-2-11,54,32,21,24,-2,-100,74,37,13,30.21,30.00,6,-127,11,0.00
2013-2-12,57,32,20,14,-8,-100,48,27,13,30.37,30.21,4,-140,8,0.00
2013-2-13,63,35,24,24,-1,-100,60,33,14,30.33,30.12,4,-140,10,0.00
2013-2-14,67,39,26,22,1,-100,59,32,15,30.25,30.10,7,-136,13,0.00
2013-2-15,69,44,31,22,3,-100,57,27,13,30.28,30.16,9,-115,14,0.00
2013-2-16,69,42,30,17,1,-100,48,24,11,30.33,29.93,5,-90,10,0.00
2013-2-17,70,50,29,32,19,9,63,34,14,30.01,29.81,21,4,21,0.00
2013-2-18,67,48,28,36,27,17,75,48,21,29.99,29.80,13,3,16,0.00
2013-2-19,52,43,36,39,33,26,87,68,49,29.80,29.57,14,6,25,0.04
2013-2-20,50,41,32,28,22,16,84,48,29,29.91,29.58,21,6,31,0.00
2013-2-21,56,43,30,28,23,13,73,48,20,30.06,29.89,9,4,22,0.00
2013-2-22,61,43,25,30,22,15,77,49,17,30.18,30.05,5,1,11,0.00
2013-2-23,60,48,32,31,26,19,63,44,26,30.08,29.82,30,8,42,0.00
2013-2-24,57,45,30,30,4,-5,62,20,8,30.20,30.02,13,3,21,0.00
2013-2-25,63,42,21,22,-1,-100,42,23,10,30.25,29.97,20,-21,24,0.00
2013-2-26,63,44,36,27,1,-100,58,24,11,30.12,29.95,14,-90,21,0.00
2013-2-27,62,44,28,14,-4,-100,38,19,11,30.32,30.12,8,-19,14,0.00
2013-2-28,67,41,25,18,-2,-100,47,24,8,30.41,30.29,6,-43,10,0.00